< < Back
Terminal Aerodrome Forecast


Current Version              Previous Versions:   1  2  3  4  5  6  7  8  9  

Terminal Aerodrome Forecast

544
FTAK31 PAJN 082333
TAFAGS
TAF
PAGS 082333Z 0900/0924 VRB06KT P6SM SCT025 OVC040
      TEMPO 0900/0904 12010KT 4SM -RA BR FEW005 SCT010 OVC025
     FM090400 15010G20KT 3SM -RA BR SCT005 BKN010 OVC020
     FM091200 20010G20KT 5SM -RA BR SCT010 OVC025
     FM091700 24012KT P6SM VCSH SCT010 SCT025 BKN040
      AMD LTD TO CLD VIS AND WIND=



Latest METAR

030
SAUS70 KWBC 090100 RRC
MTRAGS
METAR KAGS 090053Z 22005KT 10SM CLR 04/01 A2973 RMK AO2 SLP070
T00390011


USA.gov is the U.S. government's official web portal to all federal, state and local government web resources and services.